sensor_id;sensor_type;location;lat;lon;timestamp;pressure;altitude;pressure_sealevel;temperature;humidity
74310;BME280;62722;51.142;17.052;2022-11-14T00:00:52;101418.03;;;3.11;99.43
74310;BME280;62722;51.142;17.052;2022-11-14T00:03:20;101417.09;;;3.15;99.27
74310;BME280;62722;51.142;17.052;2022-11-14T00:05:49;101419.56;;;3.22;99.34
74310;BME280;62722;51.142;17.052;2022-11-14T00:08:18;101426.50;;;3.23;98.87
74310;BME280;62722;51.142;17.052;2022-11-14T00:10:47;101415.25;;;3.21;99.03
74310;BME280;62722;51.142;17.052;2022-11-14T00:13:15;101415.31;;;3.17;99.22
74310;BME280;62722;51.142;17.052;2022-11-14T00:15:43;101411.00;;;3.16;99.11
74310;BME280;62722;51.142;17.052;2022-11-14T00:18:11;101409.16;;;3.21;99.28
74310;BME280;62722;51.142;17.052;2022-11-14T00:20:38;101409.16;;;3.21;99.11
74310;BME280;62722;51.142;17.052;2022-11-14T00:23:06;101412.66;;;3.18;99.40
74310;BME280;62722;51.142;17.052;2022-11-14T00:25:33;101404.03;;;3.16;99.35
74310;BME280;62722;51.142;17.052;2022-11-14T00:28:00;101406.78;;;3.07;99.18
74310;BME280;62722;51.142;17.052;2022-11-14T00:30:28;101400.81;;;3.01;99.76
74310;BME280;62722;51.142;17.052;2022-11-14T00:32:56;101408.81;;;2.88;99.81
74310;BME280;62722;51.142;17.052;2022-11-14T00:35:23;101409.72;;;2.87;100.00
74310;BME280;62722;51.142;17.052;2022-11-14T00:37:50;101414.13;;;2.84;100.00
74310;BME280;62722;51.142;17.052;2022-11-14T00:40:18;101401.84;;;2.90;100.00
74310;BME280;62722;51.142;17.052;2022-11-14T00:42:46;101413.97;;;2.93;100.00
74310;BME280;62722;51.142;17.052;2022-11-14T00:45:13;101407.88;;;2.96;99.82
74310;BME280;62722;51.142;17.052;2022-11-14T00:47:40;101415.50;;;3.06;100.00
74310;BME280;62722;51.142;17.052;2022-11-14T00:50:09;101411.25;;;3.01;99.23
74310;BME280;62722;51.142;17.052;2022-11-14T00:52:36;101408.75;;;2.94;99.94
74310;BME280;62722;51.142;17.052;2022-11-14T00:55:04;101413.97;;;2.93;99.95
74310;BME280;62722;51.142;17.052;2022-11-14T00:57:33;101411.41;;;2.91;100.00
74310;BME280;62722;51.142;17.052;2022-11-14T01:00:01;101411.25;;;3.01;100.00
74310;BME280;62722;51.142;17.052;2022-11-14T01:02:28;101405.94;;;3.07;100.00
74310;BME280;62722;51.142;17.052;2022-11-14T01:04:55;101404.16;;;3.09;100.00
74310;BME280;62722;51.142;17.052;2022-11-14T01:07:22;101394.72;;;3.02;99.79
74310;BME280;62722;51.142;17.052;2022-11-14T01:09:49;101383.66;;;2.86;100.00
74310;BME280;62722;51.142;17.052;2022-11-14T01:12:16;101402.66;;;2.92;100.00
74310;BME280;62722;51.142;17.052;2022-11-14T01:14:45;101392.22;;;2.96;100.00
74310;BME280;62722;51.142;17.052;2022-11-14T01:17:12;101391.38;;;2.93;100.00
74310;BME280;62722;51.142;17.052;2022-11-14T01:19:39;101394.81;;;2.96;100.00
74310;BME280;62722;51.142;17.052;2022-11-14T01:22:07;101383.44;;;3.00;100.00
74310;BME280;62722;51.142;17.052;2022-11-14T01:24:34;101376.56;;;2.96;100.00
74310;BME280;62722;51.142;17.052;2022-11-14T01:27:01;101380.06;;;2.94;100.00
74310;BME280;62722;51.142;17.052;2022-11-14T01:29:28;101374.84;;;2.94;100.00
74310;BME280;62722;51.142;17.052;2022-11-14T01:31:57;101376.50;;;2.99;100.00
74310;BME280;62722;51.142;17.052;2022-11-14T01:34:24;101377.38;;;2.99;100.00
74310;BME280;62722;51.142;17.052;2022-11-14T01:36:52;101374.84;;;2.94;100.00
74310;BME280;62722;51.142;17.052;2022-11-14T01:39:19;101379.13;;;2.97;100.00
74310;BME280;62722;51.142;17.052;2022-11-14T01:41:46;101367.84;;;2.97;100.00
74310;BME280;62722;51.142;17.052;2022-11-14T01:44:15;101371.31;;;2.99;100.00
74310;BME280;62722;51.142;17.052;2022-11-14T01:46:46;101373.84;;;3.02;100.00
74310;BME280;62722;51.142;17.052;2022-11-14T01:49:19;101364.34;;;2.98;100.00
74310;BME280;62722;51.142;17.052;2022-11-14T01:51:50;101359.09;;;3.01;100.00
74310;BME280;62722;51.142;17.052;2022-11-14T01:54:21;101349.53;;;3.00;100.00
74310;BME280;62722;51.142;17.052;2022-11-14T01:56:53;101347.81;;;2.99;100.00
74310;BME280;62722;51.142;17.052;2022-11-14T01:59:23;101342.63;;;2.97;100.00
74310;BME280;62722;51.142;17.052;2022-11-14T02:01:52;101332.25;;;2.94;100.00
74310;BME280;62722;51.142;17.052;2022-11-14T02:04:26;101335.69;;;2.96;100.00
74310;BME280;62722;51.142;17.052;2022-11-14T02:06:56;101326.13;;;2.97;100.00
74310;BME280;62722;51.142;17.052;2022-11-14T02:09:23;101327.03;;;2.94;100.00
74310;BME280;62722;51.142;17.052;2022-11-14T02:11:52;101326.06;;;3.00;100.00
74310;BME280;62722;51.142;17.052;2022-11-14T02:14:20;101321.66;;;3.03;100.00
74310;BME280;62722;51.142;17.052;2022-11-14T02:16:48;101316.44;;;3.03;100.00
74310;BME280;62722;51.142;17.052;2022-11-14T02:19:16;101313.94;;;2.99;100.00
74310;BME280;62722;51.142;17.052;2022-11-14T02:21:45;101319.91;;;3.04;100.00
74310;BME280;62722;51.142;17.052;2022-11-14T02:24:15;101314.59;;;3.08;100.00
74310;BME280;62722;51.142;17.052;2022-11-14T02:26:42;101315.41;;;3.12;100.00
74310;BME280;62722;51.142;17.052;2022-11-14T02:29:10;101317.97;;;3.15;100.00
74310;BME280;62722;51.142;17.052;2022-11-14T02:31:37;101313.69;;;3.11;100.00
74310;BME280;62722;51.142;17.052;2022-11-14T02:34:05;101319.75;;;3.13;100.00
74310;BME280;62722;51.142;17.052;2022-11-14T02:36:33;101312.00;;;3.10;100.00
74310;BME280;62722;51.142;17.052;2022-11-14T02:39:01;101313.72;;;3.09;100.00
74310;BME280;62722;51.142;17.052;2022-11-14T02:41:28;101312.00;;;3.08;100.00
74310;BME280;62722;51.142;17.052;2022-11-14T02:43:55;101301.63;;;3.07;100.00
74310;BME280;62722;51.142;17.052;2022-11-14T02:46:22;101303.31;;;3.08;100.00
74310;BME280;62722;51.142;17.052;2022-11-14T02:48:50;101298.09;;;3.08;100.00
74310;BME280;62722;51.142;17.052;2022-11-14T02:51:17;101292.00;;;3.07;100.00
74310;BME280;62722;51.142;17.052;2022-11-14T02:53:44;101298.09;;;3.08;100.00
74310;BME280;62722;51.142;17.052;2022-11-14T02:56:12;101285.91;;;3.10;100.00
74310;BME280;62722;51.142;17.052;2022-11-14T02:58:39;101292.81;;;3.11;100.00
74310;BME280;62722;51.142;17.052;2022-11-14T03:01:07;101288.50;;;3.10;100.00
74310;BME280;62722;51.142;17.052;2022-11-14T03:03:34;101298.03;;;3.12;100.00
74310;BME280;62722;51.142;17.052;2022-11-14T03:06:02;101302.31;;;3.15;100.00
74310;BME280;62722;51.142;17.052;2022-11-14T03:08:29;101302.34;;;3.13;100.00
74310;BME280;62722;51.142;17.052;2022-11-14T03:11:03;101301.44;;;3.16;100.00
74310;BME280;62722;51.142;17.052;2022-11-14T03:13:32;101300.56;;;3.17;100.00
74310;BME280;62722;51.142;17.052;2022-11-14T03:16:04;101312.66;;;3.19;100.00
74310;BME280;62722;51.142;17.052;2022-11-14T03:18:34;101311.72;;;3.25;100.00
74310;BME280;62722;51.142;17.052;2022-11-14T03:21:05;101305.56;;;3.26;100.00
74310;BME280;62722;51.142;17.052;2022-11-14T03:23:32;101309.91;;;3.27;100.00
74310;BME280;62722;51.142;17.052;2022-11-14T03:26:00;101312.53;;;3.27;100.00
74310;BME280;62722;51.142;17.052;2022-11-14T03:28:27;101316.84;;;3.28;100.00
74310;BME280;62722;51.142;17.052;2022-11-14T03:30:56;101312.47;;;3.30;100.00
74310;BME280;62722;51.142;17.052;2022-11-14T03:33:23;101314.97;;;3.36;100.00
74310;BME280;62722;51.142;17.052;2022-11-14T03:35:51;101318.25;;;3.44;100.00
74310;BME280;62722;51.142;17.052;2022-11-14T03:38:19;101306.00;;;3.49;100.00
74310;BME280;62722;51.142;17.052;2022-11-14T03:40:47;101301.72;;;3.47;100.00
74310;BME280;62722;51.142;17.052;2022-11-14T03:43:15;101295.56;;;3.49;100.00
74310;BME280;62722;51.142;17.052;2022-11-14T03:45:42;101287.66;;;3.52;100.00
74310;BME280;62722;51.142;17.052;2022-11-14T03:48:12;101282.53;;;3.48;100.00
74310;BME280;62722;51.142;17.052;2022-11-14T03:50:39;101286.84;;;3.50;100.00
74310;BME280;62722;51.142;17.052;2022-11-14T03:53:07;101285.03;;;3.54;100.00
74310;BME280;62722;51.142;17.052;2022-11-14T03:55:34;101286.69;;;3.58;100.00
74310;BME280;62722;51.142;17.052;2022-11-14T03:58:03;101290.16;;;3.58;100.00
74310;BME280;62722;51.142;17.052;2022-11-14T04:00:29;101294.28;;;3.68;100.00
74310;BME280;62722;51.142;17.052;2022-11-14T04:02:57;101289.78;;;3.76;100.00
74310;BME280;62722;51.142;17.052;2022-11-14T04:05:25;101290.66;;;3.75;100.00
74310;BME280;62722;51.142;17.052;2022-11-14T04:07:52;101287.91;;;3.81;100.00
74310;BME280;62722;51.142;17.052;2022-11-14T04:10:20;101292.16;;;3.85;100.00
74310;BME280;62722;51.142;17.052;2022-11-14T04:12:47;101279.22;;;3.81;100.00
74310;BME280;62722;51.142;17.052;2022-11-14T04:15:15;101286.22;;;3.80;100.00
74310;BME280;62722;51.142;17.052;2022-11-14T04:17:42;101286.16;;;3.82;100.00
74310;BME280;62722;51.142;17.052;2022-11-14T04:20:11;101280.84;;;3.86;100.00
74310;BME280;62722;51.142;17.052;2022-11-14T04:22:39;101277.28;;;3.89;100.00
74310;BME280;62722;51.142;17.052;2022-11-14T04:25:08;101287.66;;;3.93;100.00
74310;BME280;62722;51.142;17.052;2022-11-14T04:27:35;101291.06;;;3.96;100.00
74310;BME280;62722;51.142;17.052;2022-11-14T04:30:03;101284.16;;;3.95;100.00
74310;BME280;62722;51.142;17.052;2022-11-14T04:32:30;101284.06;;;3.98;100.00
74310;BME280;62722;51.142;17.052;2022-11-14T04:34:58;101276.19;;;3.99;100.00
74310;BME280;62722;51.142;17.052;2022-11-14T04:37:25;101285.72;;;4.02;100.00
74310;BME280;62722;51.142;17.052;2022-11-14T04:39:54;101273.69;;;3.95;100.00
74310;BME280;62722;51.142;17.052;2022-11-14T04:42:23;101274.44;;;4.00;100.00
74310;BME280;62722;51.142;17.052;2022-11-14T04:44:51;101282.22;;;4.03;100.00
74310;BME280;62722;51.142;17.052;2022-11-14T04:47:19;101273.47;;;4.04;100.00
74310;BME280;62722;51.142;17.052;2022-11-14T04:49:46;101272.66;;;4.02;100.00
74310;BME280;62722;51.142;17.052;2022-11-14T04:52:13;101273.38;;;4.08;100.00
74310;BME280;62722;51.142;17.052;2022-11-14T04:54:41;101262.25;;;4.00;100.00
74310;BME280;62722;51.142;17.052;2022-11-14T04:57:09;101260.72;;;3.91;100.00
74310;BME280;62722;51.142;17.052;2022-11-14T04:59:36;101259.94;;;3.86;100.00
74310;BME280;62722;51.142;17.052;2022-11-14T05:02:03;101256.50;;;3.84;100.00
74310;BME280;62722;51.142;17.052;2022-11-14T05:04:30;101261.69;;;3.86;100.00
74310;BME280;62722;51.142;17.052;2022-11-14T05:06:58;101260.72;;;3.91;100.00
74310;BME280;62722;51.142;17.052;2022-11-14T05:09:25;101253.78;;;3.89;100.00
74310;BME280;62722;51.142;17.052;2022-11-14T05:11:52;101249.44;;;3.89;100.00
74310;BME280;62722;51.142;17.052;2022-11-14T05:14:20;101251.16;;;3.90;100.00
74310;BME280;62722;51.142;17.052;2022-11-14T05:16:48;101243.41;;;3.87;100.00
74310;BME280;62722;51.142;17.052;2022-11-14T05:19:15;101250.31;;;3.88;100.00
74310;BME280;62722;51.142;17.052;2022-11-14T05:21:42;101246.81;;;3.91;100.00
74310;BME280;62722;51.142;17.052;2022-11-14T05:24:09;101235.34;;;3.97;100.00
74310;BME280;62722;51.142;17.052;2022-11-14T05:26:37;101231.78;;;3.99;100.00
74310;BME280;62722;51.142;17.052;2022-11-14T05:29:04;101221.31;;;4.01;100.00
74310;BME280;62722;51.142;17.052;2022-11-14T05:31:33;101221.22;;;4.04;100.00
74310;BME280;62722;51.142;17.052;2022-11-14T05:34:00;101216.84;;;4.06;100.00
74310;BME280;62722;51.142;17.052;2022-11-14T05:36:27;101216.78;;;4.09;100.00
74310;BME280;62722;51.142;17.052;2022-11-14T05:38:55;101219.31;;;4.12;100.00
74310;BME280;62722;51.142;17.052;2022-11-14T05:41:22;101232.28;;;4.15;100.00
74310;BME280;62722;51.142;17.052;2022-11-14T05:43:49;101222.84;;;4.09;100.00
74310;BME280;62722;51.142;17.052;2022-11-14T05:46:17;101235.84;;;4.12;100.00
74310;BME280;62722;51.142;17.052;2022-11-14T05:48:46;101244.47;;;4.16;100.00
74310;BME280;62722;51.142;17.052;2022-11-14T05:51:13;101222.94;;;4.06;100.00
74310;BME280;62722;51.142;17.052;2022-11-14T05:53:40;101234.97;;;4.12;100.00
74310;BME280;62722;51.142;17.052;2022-11-14T05:56:10;101243.59;;;4.15;100.00
74310;BME280;62722;51.142;17.052;2022-11-14T05:58:38;101237.50;;;4.16;100.00
74310;BME280;62722;51.142;17.052;2022-11-14T06:01:08;101241.84;;;4.16;100.00
74310;BME280;62722;51.142;17.052;2022-11-14T06:03:38;101243.59;;;4.15;100.00
74310;BME280;62722;51.142;17.052;2022-11-14T06:06:08;101250.66;;;4.12;100.00
74310;BME280;62722;51.142;17.052;2022-11-14T06:08:36;101248.88;;;4.14;100.00
74310;BME280;62722;51.142;17.052;2022-11-14T06:11:05;101256.59;;;4.18;100.00
74310;BME280;62722;51.142;17.052;2022-11-14T06:13:33;101261.72;;;4.21;100.00
74310;BME280;62722;51.142;17.052;2022-11-14T06:16:01;101264.25;;;4.26;100.00
74310;BME280;62722;51.142;17.052;2022-11-14T06:18:30;101264.25;;;4.26;100.00
74310;BME280;62722;51.142;17.052;2022-11-14T06:20:58;101263.34;;;4.28;100.00
74310;BME280;62722;51.142;17.052;2022-11-14T06:23:28;101261.69;;;4.24;100.00
74310;BME280;62722;51.142;17.052;2022-11-14T06:25:59;101278.28;;;4.22;100.00
74310;BME280;62722;51.142;17.052;2022-11-14T06:28:27;101260.00;;;4.22;100.00
74310;BME280;62722;51.142;17.052;2022-11-14T06:30:56;101275.53;;;4.28;100.00
74310;BME280;62722;51.142;17.052;2022-11-14T06:33:25;101265.09;;;4.28;100.00
74310;BME280;62722;51.142;17.052;2022-11-14T06:35:56;101254.75;;;4.22;100.00
74310;BME280;62722;51.142;17.052;2022-11-14T06:38:25;101258.28;;;4.21;100.00
74310;BME280;62722;51.142;17.052;2022-11-14T06:41:00;101259.34;;;4.14;100.00
74310;BME280;62722;51.142;17.052;2022-11-14T06:43:28;101258.50;;;4.12;100.00
74310;BME280;62722;51.142;17.052;2022-11-14T06:45:57;101257.59;;;4.13;100.00
74310;BME280;62722;51.142;17.052;2022-11-14T06:48:25;101254.91;;;4.16;100.00
74310;BME280;62722;51.142;17.052;2022-11-14T06:50:53;101260.94;;;4.18;100.00
74310;BME280;62722;51.142;17.052;2022-11-14T06:53:22;101252.38;;;4.13;100.00
74310;BME280;62722;51.142;17.052;2022-11-14T06:55:58;101254.94;;;4.14;100.00
74310;BME280;62722;51.142;17.052;2022-11-14T06:58:27;101247.97;;;4.15;100.00
74310;BME280;62722;51.142;17.052;2022-11-14T07:00:54;101257.38;;;4.22;100.00
74310;BME280;62722;51.142;17.052;2022-11-14T07:03:22;101254.59;;;4.29;100.00
74310;BME280;62722;51.142;17.052;2022-11-14T07:05:49;101253.66;;;4.32;100.00
74310;BME280;62722;51.142;17.052;2022-11-14T07:08:17;101238.00;;;4.30;100.00
74310;BME280;62722;51.142;17.052;2022-11-14T07:10:44;101246.63;;;4.34;100.00
74310;BME280;62722;51.142;17.052;2022-11-14T07:13:13;101244.03;;;4.32;100.00
74310;BME280;62722;51.142;17.052;2022-11-14T07:15:48;101234.41;;;4.36;100.00
74310;BME280;62722;51.142;17.052;2022-11-14T07:18:16;101237.13;;;4.31;99.90
74310;BME280;62722;51.142;17.052;2022-11-14T07:20:43;101229.19;;;4.36;100.00
74310;BME280;62722;51.142;17.052;2022-11-14T07:23:10;101232.50;;;4.43;99.78
74310;BME280;62722;51.142;17.052;2022-11-14T07:25:38;101231.47;;;4.48;99.91
74310;BME280;62722;51.142;17.052;2022-11-14T07:28:06;101226.22;;;4.50;99.68
74310;BME280;62722;51.142;17.052;2022-11-14T07:30:34;101223.50;;;4.53;99.46
74310;BME280;62722;51.142;17.052;2022-11-14T07:33:02;101221.75;;;4.53;99.87
74310;BME280;62722;51.142;17.052;2022-11-14T07:35:30;101219.94;;;4.55;99.87
74310;BME280;62722;51.142;17.052;2022-11-14T07:38:01;101222.53;;;4.57;99.74
74310;BME280;62722;51.142;17.052;2022-11-14T07:40:29;101212.94;;;4.57;99.21
74310;BME280;62722;51.142;17.052;2022-11-14T07:42:57;101209.50;;;4.55;99.33
74310;BME280;62722;51.142;17.052;2022-11-14T07:45:26;101216.41;;;4.58;99.60
74310;BME280;62722;51.142;17.052;2022-11-14T07:47:56;101209.28;;;4.64;99.68
74310;BME280;62722;51.142;17.052;2022-11-14T07:50:25;101216.13;;;4.68;99.71
74310;BME280;62722;51.142;17.052;2022-11-14T07:52:54;101212.53;;;4.72;99.60
74310;BME280;62722;51.142;17.052;2022-11-14T07:55:22;101201.91;;;4.78;99.68
74310;BME280;62722;51.142;17.052;2022-11-14T07:57:52;101207.88;;;4.83;99.28
74310;BME280;62722;51.142;17.052;2022-11-14T08:00:20;101206.13;;;4.84;99.34
74310;BME280;62722;51.142;17.052;2022-11-14T08:02:47;101213.91;;;4.87;99.61
74310;BME280;62722;51.142;17.052;2022-11-14T08:05:16;101210.25;;;4.93;99.94
74310;BME280;62722;51.142;17.052;2022-11-14T08:07:44;101202.34;;;4.94;99.65
74310;BME280;62722;51.142;17.052;2022-11-14T08:10:11;101206.56;;;5.00;99.81
74310;BME280;62722;51.142;17.052;2022-11-14T08:12:39;101203.81;;;5.04;99.63
74310;BME280;62722;51.142;17.052;2022-11-14T08:15:08;101200.09;;;5.13;99.08
74310;BME280;62722;51.142;17.052;2022-11-14T08:17:37;101202.66;;;5.14;99.03
74310;BME280;62722;51.142;17.052;2022-11-14T08:20:06;101197.41;;;5.14;99.28
74310;BME280;62722;51.142;17.052;2022-11-14T08:22:35;101199.78;;;5.23;98.97
74310;BME280;62722;51.142;17.052;2022-11-14T08:25:03;101188.25;;;5.29;98.82
74310;BME280;62722;51.142;17.052;2022-11-14T08:27:31;101187.41;;;5.28;98.35
74310;BME280;62722;51.142;17.052;2022-11-14T08:29:58;101181.28;;;5.29;98.51
74310;BME280;62722;51.142;17.052;2022-11-14T08:32:26;101170.88;;;5.28;98.95
74310;BME280;62722;51.142;17.052;2022-11-14T08:34:53;101174.28;;;5.30;98.88
74310;BME280;62722;51.142;17.052;2022-11-14T08:37:20;101169.91;;;5.30;98.90
74310;BME280;62722;51.142;17.052;2022-11-14T08:39:49;101175.88;;;5.35;98.93
74310;BME280;62722;51.142;17.052;2022-11-14T08:42:17;101167.25;;;5.32;98.50
74310;BME280;62722;51.142;17.052;2022-11-14T08:44:44;101162.09;;;5.29;98.28
74310;BME280;62722;51.142;17.052;2022-11-14T08:47:12;101158.53;;;5.31;98.47
74310;BME280;62722;51.142;17.052;2022-11-14T08:49:39;101158.56;;;5.30;98.46
74310;BME280;62722;51.142;17.052;2022-11-14T08:52:07;101155.97;;;5.30;98.71
74310;BME280;62722;51.142;17.052;2022-11-14T08:54:34;101148.13;;;5.28;98.61
74310;BME280;62722;51.142;17.052;2022-11-14T08:57:04;101155.16;;;5.28;98.46
74310;BME280;62722;51.142;17.052;2022-11-14T08:59:31;101162.03;;;5.32;98.74
74310;BME280;62722;51.142;17.052;2022-11-14T09:01:59;101163.72;;;5.33;98.79
74310;BME280;62722;51.142;17.052;2022-11-14T09:04:26;101170.44;;;5.42;98.42
74310;BME280;62722;51.142;17.052;2022-11-14T09:06:54;101156.53;;;5.39;98.33
74310;BME280;62722;51.142;17.052;2022-11-14T09:09:21;101164.34;;;5.41;98.02
74310;BME280;62722;51.142;17.052;2022-11-14T09:11:48;101159.94;;;5.43;98.24
74310;BME280;62722;51.142;17.052;2022-11-14T09:14:17;101158.09;;;5.47;98.28
74310;BME280;62722;51.142;17.052;2022-11-14T09:16:46;101160.72;;;5.47;98.05
74310;BME280;62722;51.142;17.052;2022-11-14T09:19:14;101159.66;;;5.52;98.31
74310;BME280;62722;51.142;17.052;2022-11-14T09:21:41;101154.31;;;5.55;98.35
74310;BME280;62722;51.142;17.052;2022-11-14T09:24:08;101151.59;;;5.58;98.15
74310;BME280;62722;51.142;17.052;2022-11-14T09:26:36;101147.84;;;5.67;98.35
74310;BME280;62722;51.142;17.052;2022-11-14T09:29:03;101145.09;;;5.71;98.13
74310;BME280;62722;51.142;17.052;2022-11-14T09:31:32;101133.63;;;5.74;97.83
74310;BME280;62722;51.142;17.052;2022-11-14T09:34:00;101122.31;;;5.73;97.79
74310;BME280;62722;51.142;17.052;2022-11-14T09:36:27;101129.06;;;5.80;97.25
74310;BME280;62722;51.142;17.052;2022-11-14T09:38:54;101127.41;;;5.78;96.65
74310;BME280;62722;51.142;17.052;2022-11-14T09:41:24;101115.97;;;5.80;97.34
74310;BME280;62722;51.142;17.052;2022-11-14T09:47:02;101123.91;;;5.77;96.83
74310;BME280;62722;51.142;17.052;2022-11-14T09:49:34;101126.28;;;5.86;97.06
74310;BME280;62722;51.142;17.052;2022-11-14T09:52:14;101131.19;;;5.97;96.83
74310;BME280;62722;51.142;17.052;2022-11-14T09:54:51;101129.16;;;6.05;96.17
74310;BME280;62722;51.142;17.052;2022-11-14T09:57:21;101122.00;;;6.10;96.34
74310;BME280;62722;51.142;17.052;2022-11-14T09:59:48;101130.41;;;6.20;96.00
74310;BME280;62722;51.142;17.052;2022-11-14T10:02:29;101124.19;;;6.22;95.22
74310;BME280;62722;51.142;17.052;2022-11-14T10:05:22;101118.69;;;6.30;95.26
74310;BME280;62722;51.142;17.052;2022-11-14T10:08:08;101120.19;;;6.37;94.69
74310;BME280;62722;51.142;17.052;2022-11-14T10:10:49;101109.59;;;6.40;94.76
74310;BME280;62722;51.142;17.052;2022-11-14T10:13:29;101118.06;;;6.48;94.84
74310;BME280;62722;51.142;17.052;2022-11-14T10:16:03;101119.78;;;6.49;94.03
74310;BME280;62722;51.142;17.052;2022-11-14T10:18:43;101110.31;;;6.45;94.49
74310;BME280;62722;51.142;17.052;2022-11-14T10:21:25;101100.09;;;6.38;94.32
74310;BME280;62722;51.142;17.052;2022-11-14T10:24:04;101096.81;;;6.31;94.44
74310;BME280;62722;51.142;17.052;2022-11-14T10:26:38;101098.44;;;6.35;94.88
74310;BME280;62722;51.142;17.052;2022-11-14T10:29:33;101090.56;;;6.35;94.54
74310;BME280;62722;51.142;17.052;2022-11-14T10:32:10;101088.72;;;6.37;94.38
74310;BME280;62722;51.142;17.052;2022-11-14T10:34:49;101098.22;;;6.41;94.53
74310;BME280;62722;51.142;17.052;2022-11-14T10:37:22;101089.28;;;6.47;94.71
74310;BME280;62722;51.142;17.052;2022-11-14T10:39:53;101082.03;;;6.53;94.93
74310;BME280;62722;51.142;17.052;2022-11-14T10:42:29;101084.31;;;6.62;94.81
74310;BME280;62722;51.142;17.052;2022-11-14T10:45:02;101076.91;;;6.73;94.96
74310;BME280;62722;51.142;17.052;2022-11-14T10:47:35;101081.09;;;6.79;93.59
74310;BME280;62722;51.142;17.052;2022-11-14T10:50:14;101076.72;;;6.79;93.41
74310;BME280;62722;51.142;17.052;2022-11-14T10:52:45;101072.50;;;6.75;93.07
74310;BME280;62722;51.142;17.052;2022-11-14T10:55:16;101067.91;;;6.80;93.84
74310;BME280;62722;51.142;17.052;2022-11-14T10:57:44;101064.03;;;6.91;93.39
74310;BME280;62722;51.142;17.052;2022-11-14T11:00:14;101064.78;;;6.94;92.96
74310;BME280;62722;51.142;17.052;2022-11-14T11:02:50;101055.06;;;6.96;92.49
74310;BME280;62722;51.142;17.052;2022-11-14T11:05:21;101049.53;;;7.04;93.00
74310;BME280;62722;51.142;17.052;2022-11-14T11:07:50;101055.34;;;7.12;92.82
74310;BME280;62722;51.142;17.052;2022-11-14T11:10:41;101060.28;;;7.19;92.27
74310;BME280;62722;51.142;17.052;2022-11-14T11:13:32;101061.81;;;7.25;92.23
74310;BME280;62722;51.142;17.052;2022-11-14T11:16:01;101052.97;;;7.27;92.07
74310;BME280;62722;51.142;17.052;2022-11-14T11:18:31;101047.78;;;7.26;91.79
74310;BME280;62722;51.142;17.052;2022-11-14T11:21:06;101043.69;;;7.19;92.09
74310;BME280;62722;51.142;17.052;2022-11-14T11:23:35;101046.44;;;7.16;92.66
74310;BME280;62722;51.142;17.052;2022-11-14T11:26:05;101045.63;;;7.14;92.71
74310;BME280;62722;51.142;17.052;2022-11-14T11:28:34;101033.53;;;7.10;92.83
74310;BME280;62722;51.142;17.052;2022-11-14T11:31:04;101034.63;;;7.04;93.08
74310;BME280;62722;51.142;17.052;2022-11-14T11:33:33;101035.63;;;7.02;93.24
74310;BME280;62722;51.142;17.052;2022-11-14T11:36:05;101035.63;;;7.02;93.59
74310;BME280;62722;51.142;17.052;2022-11-14T11:38:33;101032.06;;;7.03;93.99
74310;BME280;62722;51.142;17.052;2022-11-14T11:41:16;101024.16;;;7.04;94.03
74310;BME280;62722;51.142;17.052;2022-11-14T11:43:49;101017.91;;;7.07;94.12
74310;BME280;62722;51.142;17.052;2022-11-14T11:46:24;101022.97;;;7.11;94.21
74310;BME280;62722;51.142;17.052;2022-11-14T11:48:58;101011.50;;;7.14;94.50
74310;BME280;62722;51.142;17.052;2022-11-14T11:51:32;101010.47;;;7.18;94.63
74310;BME280;62722;51.142;17.052;2022-11-14T11:54:10;101005.94;;;7.21;94.70
74310;BME280;62722;51.142;17.052;2022-11-14T11:56:41;101003.28;;;7.23;94.78
74310;BME280;62722;51.142;17.052;2022-11-14T11:59:16;100993.50;;;7.26;94.68
74310;BME280;62722;51.142;17.052;2022-11-14T12:01:47;100985.19;;;7.37;94.57
74310;BME280;62722;51.142;17.052;2022-11-14T12:04:16;100976.94;;;7.46;94.59
74310;BME280;62722;51.142;17.052;2022-11-14T12:06:49;100970.38;;;7.56;94.08
74310;BME280;62722;51.142;17.052;2022-11-14T12:09:22;100971.81;;;7.63;93.94
74310;BME280;62722;51.142;17.052;2022-11-14T12:11:53;100976.94;;;7.66;93.88
74310;BME280;62722;51.142;17.052;2022-11-14T12:14:50;100973.66;;;7.61;94.24
74310;BME280;62722;51.142;17.052;2022-11-14T12:20:38;100966.84;;;7.77;93.64
74310;BME280;62722;51.142;17.052;2022-11-14T12:23:31;100964.94;;;7.81;93.56
74310;BME280;62722;51.142;17.052;2022-11-14T12:26:21;100965.72;;;7.83;93.73
74310;BME280;62722;51.142;17.052;2022-11-14T12:29:17;100958.56;;;7.87;93.49
74310;BME280;62722;51.142;17.052;2022-11-14T12:31:47;100951.41;;;7.90;93.72
74310;BME280;62722;51.142;17.052;2022-11-14T12:34:22;100953.94;;;7.92;93.57
74310;BME280;62722;51.142;17.052;2022-11-14T12:36:51;100957.03;;;8.01;93.22
74310;BME280;62722;51.142;17.052;2022-11-14T12:39:24;100950.50;;;8.10;92.58
74310;BME280;62722;51.142;17.052;2022-11-14T12:42:00;100942.38;;;8.16;92.27
74310;BME280;62722;51.142;17.052;2022-11-14T12:44:34;100940.38;;;8.21;91.99
74310;BME280;62722;51.142;17.052;2022-11-14T12:47:14;100943.66;;;8.26;92.12
74310;BME280;62722;51.142;17.052;2022-11-14T12:50:03;100936.00;;;8.40;91.12
74310;BME280;62722;51.142;17.052;2022-11-14T12:52:46;100935.81;;;8.45;90.92
74310;BME280;62722;51.142;17.052;2022-11-14T12:58:46;100940.88;;;8.49;90.70
74310;BME280;62722;51.142;17.052;2022-11-14T13:01:26;100927.72;;;8.49;90.65
74310;BME280;62722;51.142;17.052;2022-11-14T13:04:09;100930.97;;;8.54;90.65
74310;BME280;62722;51.142;17.052;2022-11-14T13:06:46;100922.16;;;8.55;90.70
74310;BME280;62722;51.142;17.052;2022-11-14T13:09:34;100927.22;;;8.60;90.59